Hauptseite
METAR-TAF:

METAR-TAF

Flughäfen :

Flughafen Sumburgh

Sumburgh, Shetlandinseln, Schottland

Breite: 59-53N, Länge: 001-18W, Höhe: 5 m

Beobachtung

Neuester Wetterbericht von vor 38 Minuten, um 03:20 UTC
Wind 9 kt aus West/Nordwest
Temperatur 8°C
Luftfeuchtigkeit 71%
Luftdruck 987 hPa
Sichtweite 10 km oder mehr

METAR: EGPB 060320Z AUTO 29009KT 9999 BKN023/// OVC036/// 08/03 Q0987

Zeit: 03:58 (03:58 UTC)

Prognose

Neuester Wetterbericht von vor 2 Stunden und 2 Minuten, um 01:56 UTC
Gültige Prognose vom 06 um 03 UTC bis 06 um 12 UTC
Wind 5 kt aus Südwest
Sichtweite 10 km oder mehr
Aufgelockert bewölkt in der Höhe von 2000 ft
Wahrscheinlichkeit 40% :
Zeitweise
vom 06 um 03 UTC bis 06 um 12 UTC
Sichtweite: 7000 m
Durchbrochene Bewölkung in der Höhe von 800 ft
Regenschauer

TAF: EGPB 060156Z 0603/0612 22005KT 9999 SCT020 PROB40 TEMPO 0603/0612 7000 SHRA BKN008

Wetterbeobachtungen und Prognosen von mehr als 4000 Flughäfen (METAR und TAF Bericht).

Die verfügbaren Stationen werden durch gelbe und rote Markierungen auf der Karte dargestellt.

Führen Sie die Maus auf sie, um den Namen der Station zu sehen.

Darauf klicken, um die Beobachtung von Wetterbeobachtungen und Prognosen zu sehen.

Um die Karte zu ändern : klicken Sie auf den grünen Tasten mit einem schwarzen Kreuz Zum Vergrößern, auf den grünen Button mit einem Gedankenstrich zu verkleinern, oder auf die grünen Pfeile für benachbarte Karten.


METAR-TAF: